sensor_id;sensor_type;location;lat;lon;timestamp;P1;durP1;ratioP1;P2;durP2;ratioP2
25391;SDS011;13329;48.402;11.718;2024-03-02T00:02:18;21.33;;;10.77;;
25391;SDS011;13329;48.402;11.718;2024-03-02T00:04:44;19.27;;;10.15;;
25391;SDS011;13329;48.402;11.718;2024-03-02T00:07:10;20.75;;;10.70;;
25391;SDS011;13329;48.402;11.718;2024-03-02T00:09:39;24.40;;;10.70;;
25391;SDS011;13329;48.402;11.718;2024-03-02T00:12:04;16.70;;;10.38;;
25391;SDS011;13329;48.402;11.718;2024-03-02T00:14:30;20.60;;;10.80;;
25391;SDS011;13329;48.402;11.718;2024-03-02T00:16:55;27.60;;;13.13;;
25391;SDS011;13329;48.402;11.718;2024-03-02T00:19:21;20.75;;;10.93;;
25391;SDS011;13329;48.402;11.718;2024-03-02T00:21:47;18.88;;;11.27;;
25391;SDS011;13329;48.402;11.718;2024-03-02T00:24:21;23.58;;;11.15;;
25391;SDS011;13329;48.402;11.718;2024-03-02T00:26:56;20.27;;;11.98;;
25391;SDS011;13329;48.402;11.718;2024-03-02T00:29:21;22.02;;;11.85;;
25391;SDS011;13329;48.402;11.718;2024-03-02T00:31:47;18.77;;;11.38;;
25391;SDS011;13329;48.402;11.718;2024-03-02T00:34:13;22.13;;;12.07;;
25391;SDS011;13329;48.402;11.718;2024-03-02T00:36:41;19.50;;;11.20;;
25391;SDS011;13329;48.402;11.718;2024-03-02T00:39:07;23.60;;;12.23;;
25391;SDS011;13329;48.402;11.718;2024-03-02T00:41:33;26.15;;;13.00;;
25391;SDS011;13329;48.402;11.718;2024-03-02T00:46:26;25.48;;;13.25;;
25391;SDS011;13329;48.402;11.718;2024-03-02T00:48:58;30.83;;;13.60;;
25391;SDS011;13329;48.402;11.718;2024-03-02T00:51:26;20.42;;;11.73;;
25391;SDS011;13329;48.402;11.718;2024-03-02T00:53:52;22.30;;;12.32;;
25391;SDS011;13329;48.402;11.718;2024-03-02T00:56:21;27.08;;;12.60;;
25391;SDS011;13329;48.402;11.718;2024-03-02T00:58:47;27.65;;;13.10;;
25391;SDS011;13329;48.402;11.718;2024-03-02T01:01:12;23.80;;;12.07;;
25391;SDS011;13329;48.402;11.718;2024-03-02T01:03:38;25.60;;;12.50;;
25391;SDS011;13329;48.402;11.718;2024-03-02T01:06:04;25.08;;;12.85;;
25391;SDS011;13329;48.402;11.718;2024-03-02T01:08:30;23.00;;;10.95;;
25391;SDS011;13329;48.402;11.718;2024-03-02T01:10:55;23.85;;;12.85;;
25391;SDS011;13329;48.402;11.718;2024-03-02T01:13:21;22.88;;;12.55;;
25391;SDS011;13329;48.402;11.718;2024-03-02T01:15:48;26.13;;;12.32;;
25391;SDS011;13329;48.402;11.718;2024-03-02T01:18:13;21.92;;;11.25;;
25391;SDS011;13329;48.402;11.718;2024-03-02T01:20:39;27.40;;;12.77;;
25391;SDS011;13329;48.402;11.718;2024-03-02T01:23:04;18.75;;;11.85;;
25391;SDS011;13329;48.402;11.718;2024-03-02T01:25:29;20.73;;;13.35;;
25391;SDS011;13329;48.402;11.718;2024-03-02T01:27:55;23.67;;;12.48;;
25391;SDS011;13329;48.402;11.718;2024-03-02T01:30:20;24.08;;;12.82;;
25391;SDS011;13329;48.402;11.718;2024-03-02T01:32:46;21.85;;;12.25;;
25391;SDS011;13329;48.402;11.718;2024-03-02T01:35:11;21.52;;;11.75;;
25391;SDS011;13329;48.402;11.718;2024-03-02T01:37:37;21.02;;;11.80;;
25391;SDS011;13329;48.402;11.718;2024-03-02T01:40:02;20.58;;;12.07;;
25391;SDS011;13329;48.402;11.718;2024-03-02T01:42:29;23.50;;;11.57;;
25391;SDS011;13329;48.402;11.718;2024-03-02T01:44:55;20.50;;;11.93;;
25391;SDS011;13329;48.402;11.718;2024-03-02T01:47:20;26.63;;;12.90;;
25391;SDS011;13329;48.402;11.718;2024-03-02T01:49:46;22.42;;;11.35;;
25391;SDS011;13329;48.402;11.718;2024-03-02T01:52:11;18.15;;;12.15;;
25391;SDS011;13329;48.402;11.718;2024-03-02T01:54:37;22.30;;;11.95;;
25391;SDS011;13329;48.402;11.718;2024-03-02T01:57:02;23.52;;;13.07;;
25391;SDS011;13329;48.402;11.718;2024-03-02T01:59:28;26.05;;;12.63;;
25391;SDS011;13329;48.402;11.718;2024-03-02T02:01:53;21.13;;;11.60;;
25391;SDS011;13329;48.402;11.718;2024-03-02T02:04:18;21.23;;;11.30;;
25391;SDS011;13329;48.402;11.718;2024-03-02T02:06:46;27.75;;;12.18;;
25391;SDS011;13329;48.402;11.718;2024-03-02T02:09:12;22.40;;;12.43;;
25391;SDS011;13329;48.402;11.718;2024-03-02T02:11:37;24.08;;;12.80;;
25391;SDS011;13329;48.402;11.718;2024-03-02T02:14:02;25.75;;;12.07;;
25391;SDS011;13329;48.402;11.718;2024-03-02T02:16:28;23.38;;;11.93;;
25391;SDS011;13329;48.402;11.718;2024-03-02T02:18:53;23.98;;;12.95;;
25391;SDS011;13329;48.402;11.718;2024-03-02T02:21:22;25.02;;;12.82;;
25391;SDS011;13329;48.402;11.718;2024-03-02T02:23:47;24.67;;;12.77;;
25391;SDS011;13329;48.402;11.718;2024-03-02T02:26:13;23.98;;;12.70;;
25391;SDS011;13329;48.402;11.718;2024-03-02T02:28:38;26.35;;;11.82;;
25391;SDS011;13329;48.402;11.718;2024-03-02T02:31:11;19.20;;;9.13;;
25391;SDS011;13329;48.402;11.718;2024-03-02T02:33:38;25.48;;;12.73;;
25391;SDS011;13329;48.402;11.718;2024-03-02T02:36:07;22.08;;;11.65;;
25391;SDS011;13329;48.402;11.718;2024-03-02T02:38:33;21.25;;;12.15;;
25391;SDS011;13329;48.402;11.718;2024-03-02T02:41:03;19.65;;;11.73;;
25391;SDS011;13329;48.402;11.718;2024-03-02T02:43:28;27.77;;;12.85;;
25391;SDS011;13329;48.402;11.718;2024-03-02T02:45:53;21.83;;;12.65;;
25391;SDS011;13329;48.402;11.718;2024-03-02T02:48:19;23.95;;;13.05;;
25391;SDS011;13329;48.402;11.718;2024-03-02T02:50:44;25.52;;;12.68;;
25391;SDS011;13329;48.402;11.718;2024-03-02T02:53:09;25.85;;;12.50;;
25391;SDS011;13329;48.402;11.718;2024-03-02T02:55:35;22.58;;;12.02;;
25391;SDS011;13329;48.402;11.718;2024-03-02T02:58:02;25.67;;;13.10;;
25391;SDS011;13329;48.402;11.718;2024-03-02T03:00:28;22.85;;;13.18;;
25391;SDS011;13329;48.402;11.718;2024-03-02T03:02:53;22.08;;;12.73;;
25391;SDS011;13329;48.402;11.718;2024-03-02T03:05:19;19.45;;;11.18;;
25391;SDS011;13329;48.402;11.718;2024-03-02T03:07:44;23.70;;;12.70;;
25391;SDS011;13329;48.402;11.718;2024-03-02T03:10:10;22.90;;;13.10;;
25391;SDS011;13329;48.402;11.718;2024-03-02T03:12:35;19.60;;;12.15;;
25391;SDS011;13329;48.402;11.718;2024-03-02T03:15:01;21.42;;;11.30;;
25391;SDS011;13329;48.402;11.718;2024-03-02T03:17:28;24.98;;;12.43;;
25391;SDS011;13329;48.402;11.718;2024-03-02T03:19:53;21.92;;;11.20;;
25391;SDS011;13329;48.402;11.718;2024-03-02T03:22:19;21.15;;;11.35;;
25391;SDS011;13329;48.402;11.718;2024-03-02T03:24:45;19.73;;;11.40;;
25391;SDS011;13329;48.402;11.718;2024-03-02T03:27:10;22.92;;;11.52;;
25391;SDS011;13329;48.402;11.718;2024-03-02T03:29:36;28.02;;;12.27;;
25391;SDS011;13329;48.402;11.718;2024-03-02T03:32:02;25.15;;;12.00;;
25391;SDS011;13329;48.402;11.718;2024-03-02T03:34:28;23.77;;;12.57;;
25391;SDS011;13329;48.402;11.718;2024-03-02T03:36:54;25.92;;;12.40;;
25391;SDS011;13329;48.402;11.718;2024-03-02T03:39:19;23.42;;;11.82;;
25391;SDS011;13329;48.402;11.718;2024-03-02T03:41:44;25.52;;;11.15;;
25391;SDS011;13329;48.402;11.718;2024-03-02T03:44:10;21.55;;;11.98;;
25391;SDS011;13329;48.402;11.718;2024-03-02T03:46:35;24.65;;;12.52;;
25391;SDS011;13329;48.402;11.718;2024-03-02T03:49:00;19.15;;;10.90;;
25391;SDS011;13329;48.402;11.718;2024-03-02T03:51:26;22.65;;;11.38;;
25391;SDS011;13329;48.402;11.718;2024-03-02T03:53:51;22.33;;;11.45;;
25391;SDS011;13329;48.402;11.718;2024-03-02T03:56:16;23.05;;;11.57;;
25391;SDS011;13329;48.402;11.718;2024-03-02T03:58:41;28.13;;;12.13;;
25391;SDS011;13329;48.402;11.718;2024-03-02T04:01:07;23.98;;;11.65;;
25391;SDS011;13329;48.402;11.718;2024-03-02T04:03:33;21.13;;;12.65;;
25391;SDS011;13329;48.402;11.718;2024-03-02T04:05:58;19.58;;;11.68;;
25391;SDS011;13329;48.402;11.718;2024-03-02T04:08:23;23.40;;;11.38;;
25391;SDS011;13329;48.402;11.718;2024-03-02T04:10:49;18.25;;;10.80;;
25391;SDS011;13329;48.402;11.718;2024-03-02T04:13:14;16.88;;;10.63;;
25391;SDS011;13329;48.402;11.718;2024-03-02T04:15:39;20.67;;;10.52;;
25391;SDS011;13329;48.402;11.718;2024-03-02T04:18:05;26.20;;;11.38;;
25391;SDS011;13329;48.402;11.718;2024-03-02T04:20:31;23.33;;;11.98;;
25391;SDS011;13329;48.402;11.718;2024-03-02T04:22:56;20.42;;;11.15;;
25391;SDS011;13329;48.402;11.718;2024-03-02T04:25:21;21.38;;;12.30;;
25391;SDS011;13329;48.402;11.718;2024-03-02T04:27:47;20.90;;;11.75;;
25391;SDS011;13329;48.402;11.718;2024-03-02T04:30:12;25.48;;;12.18;;
25391;SDS011;13329;48.402;11.718;2024-03-02T04:32:38;19.23;;;11.25;;
25391;SDS011;13329;48.402;11.718;2024-03-02T04:35:04;22.85;;;12.27;;
25391;SDS011;13329;48.402;11.718;2024-03-02T04:37:30;21.15;;;11.25;;
25391;SDS011;13329;48.402;11.718;2024-03-02T04:39:56;24.05;;;11.15;;
25391;SDS011;13329;48.402;11.718;2024-03-02T04:42:21;24.25;;;11.68;;
25391;SDS011;13329;48.402;11.718;2024-03-02T04:44:47;22.48;;;11.25;;
25391;SDS011;13329;48.402;11.718;2024-03-02T04:47:13;27.33;;;12.85;;
25391;SDS011;13329;48.402;11.718;2024-03-02T04:49:38;23.00;;;12.20;;
25391;SDS011;13329;48.402;11.718;2024-03-02T04:52:03;21.30;;;12.50;;
25391;SDS011;13329;48.402;11.718;2024-03-02T04:54:29;26.58;;;11.50;;
25391;SDS011;13329;48.402;11.718;2024-03-02T04:56:54;20.85;;;11.30;;
25391;SDS011;13329;48.402;11.718;2024-03-02T04:59:19;18.33;;;10.60;;
25391;SDS011;13329;48.402;11.718;2024-03-02T05:01:45;24.00;;;11.77;;
25391;SDS011;13329;48.402;11.718;2024-03-02T05:04:12;15.88;;;9.57;;
25391;SDS011;13329;48.402;11.718;2024-03-02T05:06:38;22.70;;;11.50;;
25391;SDS011;13329;48.402;11.718;2024-03-02T05:09:05;27.88;;;11.88;;
25391;SDS011;13329;48.402;11.718;2024-03-02T05:11:30;21.90;;;10.27;;
25391;SDS011;13329;48.402;11.718;2024-03-02T05:14:01;20.25;;;11.07;;
25391;SDS011;13329;48.402;11.718;2024-03-02T05:16:27;18.25;;;10.75;;
25391;SDS011;13329;48.402;11.718;2024-03-02T05:18:52;22.00;;;10.57;;
25391;SDS011;13329;48.402;11.718;2024-03-02T05:21:17;20.38;;;10.27;;
25391;SDS011;13329;48.402;11.718;2024-03-02T05:23:43;21.25;;;11.38;;
25391;SDS011;13329;48.402;11.718;2024-03-02T05:26:09;24.27;;;11.15;;
25391;SDS011;13329;48.402;11.718;2024-03-02T05:28:36;20.02;;;10.75;;
25391;SDS011;13329;48.402;11.718;2024-03-02T05:31:02;27.08;;;11.95;;
25391;SDS011;13329;48.402;11.718;2024-03-02T05:33:27;20.65;;;12.18;;
25391;SDS011;13329;48.402;11.718;2024-03-02T05:35:53;19.90;;;12.20;;
25391;SDS011;13329;48.402;11.718;2024-03-02T05:38:18;21.63;;;10.68;;
25391;SDS011;13329;48.402;11.718;2024-03-02T05:40:44;22.92;;;11.45;;
25391;SDS011;13329;48.402;11.718;2024-03-02T05:43:09;20.88;;;10.98;;
25391;SDS011;13329;48.402;11.718;2024-03-02T05:45:34;16.67;;;10.15;;
25391;SDS011;13329;48.402;11.718;2024-03-02T05:47:59;18.45;;;10.80;;
25391;SDS011;13329;48.402;11.718;2024-03-02T05:50:25;18.02;;;10.13;;
25391;SDS011;13329;48.402;11.718;2024-03-02T05:52:50;19.02;;;10.20;;
25391;SDS011;13329;48.402;11.718;2024-03-02T05:55:15;17.35;;;10.45;;
25391;SDS011;13329;48.402;11.718;2024-03-02T05:57:41;18.05;;;10.63;;
25391;SDS011;13329;48.402;11.718;2024-03-02T06:00:09;19.48;;;10.82;;
25391;SDS011;13329;48.402;11.718;2024-03-02T06:02:35;22.00;;;11.45;;
25391;SDS011;13329;48.402;11.718;2024-03-02T06:05:04;18.08;;;9.75;;
25391;SDS011;13329;48.402;11.718;2024-03-02T06:07:29;19.60;;;11.00;;
25391;SDS011;13329;48.402;11.718;2024-03-02T06:09:55;22.63;;;11.75;;
25391;SDS011;13329;48.402;11.718;2024-03-02T06:12:20;16.65;;;10.57;;
25391;SDS011;13329;48.402;11.718;2024-03-02T06:14:45;20.75;;;10.90;;
25391;SDS011;13329;48.402;11.718;2024-03-02T06:17:11;20.95;;;11.40;;
25391;SDS011;13329;48.402;11.718;2024-03-02T06:19:36;19.60;;;10.88;;
25391;SDS011;13329;48.402;11.718;2024-03-02T06:22:01;16.77;;;10.90;;
25391;SDS011;13329;48.402;11.718;2024-03-02T06:24:27;24.52;;;11.77;;
25391;SDS011;13329;48.402;11.718;2024-03-02T06:26:52;19.60;;;10.75;;
25391;SDS011;13329;48.402;11.718;2024-03-02T06:29:17;20.13;;;9.90;;
25391;SDS011;13329;48.402;11.718;2024-03-02T06:31:43;17.00;;;9.80;;
25391;SDS011;13329;48.402;11.718;2024-03-02T06:34:08;17.70;;;10.35;;
25391;SDS011;13329;48.402;11.718;2024-03-02T06:36:33;18.85;;;9.32;;
25391;SDS011;13329;48.402;11.718;2024-03-02T06:38:59;22.17;;;10.80;;
25391;SDS011;13329;48.402;11.718;2024-03-02T06:41:24;20.92;;;10.40;;
25391;SDS011;13329;48.402;11.718;2024-03-02T06:43:51;21.98;;;11.18;;
25391;SDS011;13329;48.402;11.718;2024-03-02T06:46:24;21.52;;;11.02;;
25391;SDS011;13329;48.402;11.718;2024-03-02T06:48:49;18.08;;;10.73;;
25391;SDS011;13329;48.402;11.718;2024-03-02T06:51:15;21.88;;;12.10;;
25391;SDS011;13329;48.402;11.718;2024-03-02T06:53:40;22.40;;;11.57;;
25391;SDS011;13329;48.402;11.718;2024-03-02T06:56:06;24.25;;;10.55;;
25391;SDS011;13329;48.402;11.718;2024-03-02T06:58:33;21.30;;;11.20;;
25391;SDS011;13329;48.402;11.718;2024-03-02T07:00:58;16.98;;;10.48;;
25391;SDS011;13329;48.402;11.718;2024-03-02T07:03:25;18.92;;;10.45;;
25391;SDS011;13329;48.402;11.718;2024-03-02T07:05:50;19.90;;;10.95;;
25391;SDS011;13329;48.402;11.718;2024-03-02T07:08:15;21.52;;;11.02;;
25391;SDS011;13329;48.402;11.718;2024-03-02T07:10:41;17.35;;;10.55;;
25391;SDS011;13329;48.402;11.718;2024-03-02T07:13:06;25.95;;;11.32;;
25391;SDS011;13329;48.402;11.718;2024-03-02T07:15:32;22.48;;;12.05;;
25391;SDS011;13329;48.402;11.718;2024-03-02T07:18:35;20.98;;;10.50;;
25391;SDS011;13329;48.402;11.718;2024-03-02T07:21:09;22.20;;;10.57;;
25391;SDS011;13329;48.402;11.718;2024-03-02T07:23:34;21.48;;;11.20;;
25391;SDS011;13329;48.402;11.718;2024-03-02T07:26:00;22.17;;;11.60;;
25391;SDS011;13329;48.402;11.718;2024-03-02T07:28:26;23.92;;;11.32;;
25391;SDS011;13329;48.402;11.718;2024-03-02T07:31:01;21.95;;;10.65;;
25391;SDS011;13329;48.402;11.718;2024-03-02T07:33:29;21.63;;;10.73;;
25391;SDS011;13329;48.402;11.718;2024-03-02T07:35:57;27.50;;;12.25;;
25391;SDS011;13329;48.402;11.718;2024-03-02T07:38:24;25.63;;;13.77;;
25391;SDS011;13329;48.402;11.718;2024-03-02T07:40:50;30.08;;;14.80;;
25391;SDS011;13329;48.402;11.718;2024-03-02T07:43:16;28.38;;;14.55;;
25391;SDS011;13329;48.402;11.718;2024-03-02T07:45:42;25.52;;;13.07;;
25391;SDS011;13329;48.402;11.718;2024-03-02T07:48:07;29.02;;;13.93;;
25391;SDS011;13329;48.402;11.718;2024-03-02T07:50:32;32.70;;;13.52;;
25391;SDS011;13329;48.402;11.718;2024-03-02T07:53:00;27.30;;;13.23;;
25391;SDS011;13329;48.402;11.718;2024-03-02T07:55:28;21.55;;;11.27;;
25391;SDS011;13329;48.402;11.718;2024-03-02T07:57:54;25.08;;;11.15;;
25391;SDS011;13329;48.402;11.718;2024-03-02T08:00:20;23.58;;;12.48;;
25391;SDS011;13329;48.402;11.718;2024-03-02T08:02:45;24.20;;;11.63;;
25391;SDS011;13329;48.402;11.718;2024-03-02T08:05:11;23.00;;;13.10;;
25391;SDS011;13329;48.402;11.718;2024-03-02T08:07:36;20.65;;;12.07;;
25391;SDS011;13329;48.402;11.718;2024-03-02T08:10:02;22.85;;;12.90;;
25391;SDS011;13329;48.402;11.718;2024-03-02T08:12:27;23.70;;;12.43;;
25391;SDS011;13329;48.402;11.718;2024-03-02T08:14:53;20.92;;;12.43;;
25391;SDS011;13329;48.402;11.718;2024-03-02T08:17:18;23.38;;;12.63;;
25391;SDS011;13329;48.402;11.718;2024-03-02T08:19:43;22.15;;;11.95;;
25391;SDS011;13329;48.402;11.718;2024-03-02T08:22:09;34.55;;;11.32;;
25391;SDS011;13329;48.402;11.718;2024-03-02T08:24:35;25.88;;;12.52;;
25391;SDS011;13329;48.402;11.718;2024-03-02T08:27:01;27.70;;;12.60;;
25391;SDS011;13329;48.402;11.718;2024-03-02T08:29:26;27.88;;;13.10;;
25391;SDS011;13329;48.402;11.718;2024-03-02T08:31:52;30.58;;;13.55;;
25391;SDS011;13329;48.402;11.718;2024-03-02T08:34:18;26.13;;;13.18;;
25391;SDS011;13329;48.402;11.718;2024-03-02T08:36:43;30.67;;;12.57;;
25391;SDS011;13329;48.402;11.718;2024-03-02T08:39:08;22.13;;;11.98;;
25391;SDS011;13329;48.402;11.718;2024-03-02T08:41:44;21.48;;;11.77;;
25391;SDS011;13329;48.402;11.718;2024-03-02T08:44:11;36.95;;;12.27;;
25391;SDS011;13329;48.402;11.718;2024-03-02T08:46:38;27.35;;;12.90;;
25391;SDS011;13329;48.402;11.718;2024-03-02T08:49:03;24.48;;;11.23;;
25391;SDS011;13329;48.402;11.718;2024-03-02T08:51:29;21.17;;;11.80;;
25391;SDS011;13329;48.402;11.718;2024-03-02T08:53:55;23.70;;;12.43;;
25391;SDS011;13329;48.402;11.718;2024-03-02T08:56:20;22.05;;;12.60;;
25391;SDS011;13329;48.402;11.718;2024-03-02T08:58:46;22.08;;;11.93;;
25391;SDS011;13329;48.402;11.718;2024-03-02T09:01:12;20.05;;;11.43;;
25391;SDS011;13329;48.402;11.718;2024-03-02T09:03:37;22.42;;;11.68;;
25391;SDS011;13329;48.402;11.718;2024-03-02T09:06:03;19.80;;;10.80;;
25391;SDS011;13329;48.402;11.718;2024-03-02T09:08:28;20.58;;;11.05;;
25391;SDS011;13329;48.402;11.718;2024-03-02T09:10:54;21.77;;;11.88;;
25391;SDS011;13329;48.402;11.718;2024-03-02T09:13:20;25.00;;;12.05;;
25391;SDS011;13329;48.402;11.718;2024-03-02T09:15:47;23.63;;;12.27;;
25391;SDS011;13329;48.402;11.718;2024-03-02T09:18:12;25.23;;;12.25;;
25391;SDS011;13329;48.402;11.718;2024-03-02T09:20:38;20.17;;;11.20;;
25391;SDS011;13329;48.402;11.718;2024-03-02T09:23:03;24.65;;;12.45;;
25391;SDS011;13329;48.402;11.718;2024-03-02T09:25:28;29.35;;;12.90;;
25391;SDS011;13329;48.402;11.718;2024-03-02T09:27:54;19.67;;;10.57;;
25391;SDS011;13329;48.402;11.718;2024-03-02T09:30:19;20.95;;;11.25;;
25391;SDS011;13329;48.402;11.718;2024-03-02T09:32:44;25.30;;;11.45;;
25391;SDS011;13329;48.402;11.718;2024-03-02T09:35:10;19.77;;;11.43;;
25391;SDS011;13329;48.402;11.718;2024-03-02T09:37:36;23.45;;;11.90;;
25391;SDS011;13329;48.402;11.718;2024-03-02T09:40:02;23.40;;;12.60;;
25391;SDS011;13329;48.402;11.718;2024-03-02T09:42:28;27.15;;;13.18;;
25391;SDS011;13329;48.402;11.718;2024-03-02T09:44:54;23.02;;;12.85;;
25391;SDS011;13329;48.402;11.718;2024-03-02T09:47:20;24.30;;;12.18;;
25391;SDS011;13329;48.402;11.718;2024-03-02T09:49:45;24.08;;;12.98;;
25391;SDS011;13329;48.402;11.718;2024-03-02T09:52:11;24.58;;;12.65;;
25391;SDS011;13329;48.402;11.718;2024-03-02T09:54:38;24.83;;;13.20;;
25391;SDS011;13329;48.402;11.718;2024-03-02T09:57:03;27.30;;;13.48;;
25391;SDS011;13329;48.402;11.718;2024-03-02T09:59:29;27.60;;;13.70;;
25391;SDS011;13329;48.402;11.718;2024-03-02T10:04:26;25.63;;;13.68;;
25391;SDS011;13329;48.402;11.718;2024-03-02T10:09:47;26.42;;;13.75;;
25391;SDS011;13329;48.402;11.718;2024-03-02T10:12:15;29.98;;;14.43;;
25391;SDS011;13329;48.402;11.718;2024-03-02T10:14:42;30.67;;;14.80;;
25391;SDS011;13329;48.402;11.718;2024-03-02T10:17:08;32.25;;;15.15;;
25391;SDS011;13329;48.402;11.718;2024-03-02T10:19:35;34.70;;;15.32;;
25391;SDS011;13329;48.402;11.718;2024-03-02T10:22:02;31.70;;;15.00;;
25391;SDS011;13329;48.402;11.718;2024-03-02T10:24:34;29.27;;;15.25;;
25391;SDS011;13329;48.402;11.718;2024-03-02T10:27:16;29.05;;;14.60;;
25391;SDS011;13329;48.402;11.718;2024-03-02T10:29:45;36.65;;;15.20;;
25391;SDS011;13329;48.402;11.718;2024-03-02T10:32:11;37.00;;;16.27;;
25391;SDS011;13329;48.402;11.718;2024-03-02T10:34:37;25.60;;;14.48;;
25391;SDS011;13329;48.402;11.718;2024-03-02T10:37:05;27.23;;;14.82;;
25391;SDS011;13329;48.402;11.718;2024-03-02T10:39:31;33.13;;;14.40;;
25391;SDS011;13329;48.402;11.718;2024-03-02T10:41:57;27.35;;;13.93;;
25391;SDS011;13329;48.402;11.718;2024-03-02T10:44:23;29.58;;;14.13;;
25391;SDS011;13329;48.402;11.718;2024-03-02T10:46:50;28.65;;;15.07;;
25391;SDS011;13329;48.402;11.718;2024-03-02T10:49:19;30.95;;;14.77;;
25391;SDS011;13329;48.402;11.718;2024-03-02T10:51:45;26.63;;;14.30;;
25391;SDS011;13329;48.402;11.718;2024-03-02T10:54:11;26.48;;;13.45;;
25391;SDS011;13329;48.402;11.718;2024-03-02T10:56:39;27.33;;;13.95;;
25391;SDS011;13329;48.402;11.718;2024-03-02T10:59:10;22.25;;;11.80;;
25391;SDS011;13329;48.402;11.718;2024-03-02T11:04:08;24.23;;;11.63;;
25391;SDS011;13329;48.402;11.718;2024-03-02T11:06:34;27.10;;;11.00;;
25391;SDS011;13329;48.402;11.718;2024-03-02T11:09:05;24.23;;;12.23;;
25391;SDS011;13329;48.402;11.718;2024-03-02T11:11:33;21.98;;;11.85;;
25391;SDS011;13329;48.402;11.718;2024-03-02T11:14:02;22.00;;;11.80;;
25391;SDS011;13329;48.402;11.718;2024-03-02T11:16:36;20.50;;;10.50;;
25391;SDS011;13329;48.402;11.718;2024-03-02T11:19:07;22.15;;;10.75;;
25391;SDS011;13329;48.402;11.718;2024-03-02T11:21:35;24.30;;;11.35;;
25391;SDS011;13329;48.402;11.718;2024-03-02T11:26:46;22.17;;;10.80;;
25391;SDS011;13329;48.402;11.718;2024-03-02T11:29:33;30.63;;;11.10;;
25391;SDS011;13329;48.402;11.718;2024-03-02T11:32:19;21.38;;;11.05;;
25391;SDS011;13329;48.402;11.718;2024-03-02T11:34:47;24.05;;;10.63;;
25391;SDS011;13329;48.402;11.718;2024-03-02T11:37:14;19.60;;;10.35;;
25391;SDS011;13329;48.402;11.718;2024-03-02T11:39:40;25.35;;;10.52;;
25391;SDS011;13329;48.402;11.718;2024-03-02T11:42:08;22.05;;;10.77;;
25391;SDS011;13329;48.402;11.718;2024-03-02T11:44:38;23.42;;;11.27;;
25391;SDS011;13329;48.402;11.718;2024-03-02T11:47:06;15.15;;;9.13;;
25391;SDS011;13329;48.402;11.718;2024-03-02T11:49:38;22.50;;;10.00;;
25391;SDS011;13329;48.402;11.718;2024-03-02T11:52:09;17.15;;;9.43;;
25391;SDS011;13329;48.402;11.718;2024-03-02T11:54:36;19.08;;;9.73;;
25391;SDS011;13329;48.402;11.718;2024-03-02T11:57:11;17.83;;;9.52;;
25391;SDS011;13329;48.402;11.718;2024-03-02T11:59:37;17.33;;;8.75;;
25391;SDS011;13329;48.402;11.718;2024-03-02T12:02:02;23.42;;;10.05;;
25391;SDS011;13329;48.402;11.718;2024-03-02T12:04:28;12.82;;;8.50;;
25391;SDS011;13329;48.402;11.718;2024-03-02T12:06:55;16.70;;;8.63;;
25391;SDS011;13329;48.402;11.718;2024-03-02T12:09:21;14.40;;;7.65;;
25391;SDS011;13329;48.402;11.718;2024-03-02T12:11:46;14.77;;;6.95;;
25391;SDS011;13329;48.402;11.718;2024-03-02T12:14:12;13.48;;;6.82;;
25391;SDS011;13329;48.402;11.718;2024-03-02T12:16:38;15.40;;;7.72;;
25391;SDS011;13329;48.402;11.718;2024-03-02T12:19:04;18.52;;;8.70;;
25391;SDS011;13329;48.402;11.718;2024-03-02T12:21:30;18.35;;;8.50;;
25391;SDS011;13329;48.402;11.718;2024-03-02T12:23:56;16.92;;;8.73;;
25391;SDS011;13329;48.402;11.718;2024-03-02T12:26:21;17.75;;;8.05;;
25391;SDS011;13329;48.402;11.718;2024-03-02T12:28:47;14.50;;;7.35;;
25391;SDS011;13329;48.402;11.718;2024-03-02T12:31:13;19.77;;;8.77;;
25391;SDS011;13329;48.402;11.718;2024-03-02T12:33:39;17.05;;;8.05;;
25391;SDS011;13329;48.402;11.718;2024-03-02T12:36:09;12.98;;;8.15;;
25391;SDS011;13329;48.402;11.718;2024-03-02T12:38:34;19.50;;;8.80;;
25391;SDS011;13329;48.402;11.718;2024-03-02T12:41:00;15.93;;;9.73;;
25391;SDS011;13329;48.402;11.718;2024-03-02T12:43:29;15.88;;;7.55;;
25391;SDS011;13329;48.402;11.718;2024-03-02T12:45:55;16.73;;;8.25;;
25391;SDS011;13329;48.402;11.718;2024-03-02T12:48:21;16.95;;;7.95;;
25391;SDS011;13329;48.402;11.718;2024-03-02T12:50:46;18.05;;;8.73;;
25391;SDS011;13329;48.402;11.718;2024-03-02T12:53:15;16.23;;;8.43;;
25391;SDS011;13329;48.402;11.718;2024-03-02T12:55:43;20.70;;;8.93;;
25391;SDS011;13329;48.402;11.718;2024-03-02T12:58:16;16.63;;;8.30;;
25391;SDS011;13329;48.402;11.718;2024-03-02T13:00:46;18.98;;;8.70;;
25391;SDS011;13329;48.402;11.718;2024-03-02T13:03:11;15.15;;;8.48;;
25391;SDS011;13329;48.402;11.718;2024-03-02T13:05:37;21.38;;;8.80;;
25391;SDS011;13329;48.402;11.718;2024-03-02T13:08:02;15.02;;;8.57;;
25391;SDS011;13329;48.402;11.718;2024-03-02T13:10:29;17.15;;;9.23;;
25391;SDS011;13329;48.402;11.718;2024-03-02T13:12:55;21.60;;;9.63;;
25391;SDS011;13329;48.402;11.718;2024-03-02T13:15:21;18.42;;;8.93;;
25391;SDS011;13329;48.402;11.718;2024-03-02T13:17:47;14.60;;;7.97;;
25391;SDS011;13329;48.402;11.718;2024-03-02T13:20:12;15.95;;;7.88;;
25391;SDS011;13329;48.402;11.718;2024-03-02T13:22:39;14.82;;;8.65;;
25391;SDS011;13329;48.402;11.718;2024-03-02T13:25:04;18.70;;;8.82;;
25391;SDS011;13329;48.402;11.718;2024-03-02T13:27:30;18.73;;;8.90;;
25391;SDS011;13329;48.402;11.718;2024-03-02T13:29:57;16.70;;;8.90;;
25391;SDS011;13329;48.402;11.718;2024-03-02T13:32:22;24.83;;;9.88;;
25391;SDS011;13329;48.402;11.718;2024-03-02T13:34:49;22.42;;;9.43;;
25391;SDS011;13329;48.402;11.718;2024-03-02T13:37:15;16.33;;;8.82;;
25391;SDS011;13329;48.402;11.718;2024-03-02T13:39:40;17.45;;;9.60;;
25391;SDS011;13329;48.402;11.718;2024-03-02T13:42:07;17.20;;;9.73;;
25391;SDS011;13329;48.402;11.718;2024-03-02T13:44:38;16.00;;;9.05;;
25391;SDS011;13329;48.402;11.718;2024-03-02T13:47:04;18.20;;;8.48;;
25391;SDS011;13329;48.402;11.718;2024-03-02T13:49:30;14.88;;;7.50;;
25391;SDS011;13329;48.402;11.718;2024-03-02T13:52:01;19.75;;;8.15;;
25391;SDS011;13329;48.402;11.718;2024-03-02T13:54:36;16.95;;;7.97;;
25391;SDS011;13329;48.402;11.718;2024-03-02T13:57:03;13.90;;;7.10;;
25391;SDS011;13329;48.402;11.718;2024-03-02T13:59:30;19.23;;;8.43;;
25391;SDS011;13329;48.402;11.718;2024-03-02T14:01:55;13.98;;;7.07;;
25391;SDS011;13329;48.402;11.718;2024-03-02T14:04:21;15.35;;;8.20;;
25391;SDS011;13329;48.402;11.718;2024-03-02T14:06:46;16.80;;;7.85;;
25391;SDS011;13329;48.402;11.718;2024-03-02T14:09:11;13.10;;;8.13;;
25391;SDS011;13329;48.402;11.718;2024-03-02T14:11:37;20.42;;;8.82;;
25391;SDS011;13329;48.402;11.718;2024-03-02T14:14:02;18.90;;;8.50;;
25391;SDS011;13329;48.402;11.718;2024-03-02T14:16:28;16.05;;;8.48;;
25391;SDS011;13329;48.402;11.718;2024-03-02T14:18:53;21.33;;;9.80;;
25391;SDS011;13329;48.402;11.718;2024-03-02T14:21:19;18.45;;;10.00;;